sensor_id;sensor_type;location;lat;lon;timestamp;P1;durP1;ratioP1;P2;durP2;ratioP2
568;SDS011;269;48.884;9.192;2024-02-26T00:01:49;2.20;;;2.00;;
568;SDS011;269;48.884;9.192;2024-02-26T00:04:16;1.90;;;1.80;;
568;SDS011;269;48.884;9.192;2024-02-26T00:06:44;1.98;;;1.88;;
568;SDS011;269;48.884;9.192;2024-02-26T00:09:10;2.38;;;2.10;;
568;SDS011;269;48.884;9.192;2024-02-26T00:11:37;2.42;;;2.20;;
568;SDS011;269;48.884;9.192;2024-02-26T00:14:04;1.80;;;1.70;;
568;SDS011;269;48.884;9.192;2024-02-26T00:16:31;2.35;;;2.15;;
568;SDS011;269;48.884;9.192;2024-02-26T00:18:58;2.30;;;2.08;;
568;SDS011;269;48.884;9.192;2024-02-26T00:21:25;2.42;;;1.90;;
568;SDS011;269;48.884;9.192;2024-02-26T00:23:53;2.22;;;2.03;;
568;SDS011;269;48.884;9.192;2024-02-26T00:26:19;3.25;;;2.30;;
568;SDS011;269;48.884;9.192;2024-02-26T00:28:46;3.05;;;1.98;;
568;SDS011;269;48.884;9.192;2024-02-26T00:31:12;2.28;;;2.15;;
568;SDS011;269;48.884;9.192;2024-02-26T00:33:39;2.55;;;1.80;;
568;SDS011;269;48.884;9.192;2024-02-26T00:36:06;2.20;;;1.75;;
568;SDS011;269;48.884;9.192;2024-02-26T00:38:32;2.13;;;2.03;;
568;SDS011;269;48.884;9.192;2024-02-26T00:41:00;1.80;;;1.70;;
568;SDS011;269;48.884;9.192;2024-02-26T00:43:27;2.13;;;1.92;;
568;SDS011;269;48.884;9.192;2024-02-26T00:45:54;2.40;;;2.00;;
568;SDS011;269;48.884;9.192;2024-02-26T00:48:20;1.92;;;1.83;;
568;SDS011;269;48.884;9.192;2024-02-26T00:50:47;2.00;;;1.80;;
568;SDS011;269;48.884;9.192;2024-02-26T00:53:13;1.90;;;1.80;;
568;SDS011;269;48.884;9.192;2024-02-26T00:55:40;2.47;;;2.28;;
568;SDS011;269;48.884;9.192;2024-02-26T00:58:08;2.30;;;2.20;;
568;SDS011;269;48.884;9.192;2024-02-26T01:00:35;2.10;;;2.00;;
568;SDS011;269;48.884;9.192;2024-02-26T01:03:02;2.40;;;2.20;;
568;SDS011;269;48.884;9.192;2024-02-26T01:05:29;2.30;;;2.10;;
568;SDS011;269;48.884;9.192;2024-02-26T01:07:56;2.45;;;2.10;;
568;SDS011;269;48.884;9.192;2024-02-26T01:10:23;2.13;;;1.95;;
568;SDS011;269;48.884;9.192;2024-02-26T01:12:50;2.10;;;1.90;;
568;SDS011;269;48.884;9.192;2024-02-26T01:15:18;1.83;;;1.73;;
568;SDS011;269;48.884;9.192;2024-02-26T01:17:48;2.00;;;1.90;;
568;SDS011;269;48.884;9.192;2024-02-26T01:20:16;2.20;;;2.10;;
568;SDS011;269;48.884;9.192;2024-02-26T01:22:43;2.10;;;1.80;;
568;SDS011;269;48.884;9.192;2024-02-26T01:25:10;1.88;;;1.77;;
568;SDS011;269;48.884;9.192;2024-02-26T01:27:36;1.92;;;1.77;;
568;SDS011;269;48.884;9.192;2024-02-26T01:30:03;1.70;;;1.60;;
568;SDS011;269;48.884;9.192;2024-02-26T01:32:32;1.70;;;1.60;;
568;SDS011;269;48.884;9.192;2024-02-26T01:35:01;2.47;;;2.15;;
568;SDS011;269;48.884;9.192;2024-02-26T01:37:28;1.83;;;1.73;;
568;SDS011;269;48.884;9.192;2024-02-26T01:39:55;3.15;;;1.90;;
568;SDS011;269;48.884;9.192;2024-02-26T01:42:21;1.92;;;1.70;;
568;SDS011;269;48.884;9.192;2024-02-26T01:44:48;2.10;;;1.90;;
568;SDS011;269;48.884;9.192;2024-02-26T01:47:14;1.90;;;1.80;;
568;SDS011;269;48.884;9.192;2024-02-26T01:49:42;2.30;;;2.10;;
568;SDS011;269;48.884;9.192;2024-02-26T01:52:09;2.47;;;2.08;;
568;SDS011;269;48.884;9.192;2024-02-26T01:54:36;1.85;;;1.63;;
568;SDS011;269;48.884;9.192;2024-02-26T01:57:04;2.00;;;1.90;;
568;SDS011;269;48.884;9.192;2024-02-26T01:59:31;1.70;;;1.60;;
568;SDS011;269;48.884;9.192;2024-02-26T02:01:59;2.20;;;2.00;;
568;SDS011;269;48.884;9.192;2024-02-26T02:04:27;2.40;;;2.20;;
568;SDS011;269;48.884;9.192;2024-02-26T02:06:56;1.95;;;1.85;;
568;SDS011;269;48.884;9.192;2024-02-26T02:09:24;2.03;;;1.90;;
568;SDS011;269;48.884;9.192;2024-02-26T02:11:51;2.42;;;1.90;;
568;SDS011;269;48.884;9.192;2024-02-26T02:14:18;1.70;;;1.60;;
568;SDS011;269;48.884;9.192;2024-02-26T02:16:44;1.70;;;1.60;;
568;SDS011;269;48.884;9.192;2024-02-26T02:19:12;2.15;;;2.00;;
568;SDS011;269;48.884;9.192;2024-02-26T02:21:40;1.80;;;1.70;;
568;SDS011;269;48.884;9.192;2024-02-26T02:24:07;2.97;;;2.00;;
568;SDS011;269;48.884;9.192;2024-02-26T02:26:34;2.40;;;1.92;;
568;SDS011;269;48.884;9.192;2024-02-26T02:29:00;2.30;;;2.10;;
568;SDS011;269;48.884;9.192;2024-02-26T02:31:27;2.55;;;2.00;;
568;SDS011;269;48.884;9.192;2024-02-26T02:33:53;2.22;;;1.92;;
568;SDS011;269;48.884;9.192;2024-02-26T02:36:20;1.65;;;1.55;;
568;SDS011;269;48.884;9.192;2024-02-26T02:38:51;2.60;;;1.83;;
568;SDS011;269;48.884;9.192;2024-02-26T02:41:18;1.65;;;1.55;;
568;SDS011;269;48.884;9.192;2024-02-26T02:43:45;1.90;;;1.70;;
568;SDS011;269;48.884;9.192;2024-02-26T02:46:12;3.17;;;2.00;;
568;SDS011;269;48.884;9.192;2024-02-26T02:48:38;1.70;;;1.60;;
568;SDS011;269;48.884;9.192;2024-02-26T02:51:05;1.58;;;1.48;;
568;SDS011;269;48.884;9.192;2024-02-26T02:53:32;1.70;;;1.60;;
568;SDS011;269;48.884;9.192;2024-02-26T02:56:00;2.42;;;2.15;;
568;SDS011;269;48.884;9.192;2024-02-26T02:58:26;2.92;;;2.05;;
568;SDS011;269;48.884;9.192;2024-02-26T03:00:53;2.90;;;2.00;;
568;SDS011;269;48.884;9.192;2024-02-26T03:03:21;2.33;;;2.13;;
568;SDS011;269;48.884;9.192;2024-02-26T03:05:49;1.75;;;1.65;;
568;SDS011;269;48.884;9.192;2024-02-26T03:08:15;1.30;;;1.20;;
568;SDS011;269;48.884;9.192;2024-02-26T03:10:42;1.20;;;1.10;;
568;SDS011;269;48.884;9.192;2024-02-26T03:13:10;1.40;;;1.30;;
568;SDS011;269;48.884;9.192;2024-02-26T03:15:37;1.83;;;1.73;;
568;SDS011;269;48.884;9.192;2024-02-26T03:18:04;2.38;;;2.20;;
568;SDS011;269;48.884;9.192;2024-02-26T03:20:30;1.98;;;1.80;;
568;SDS011;269;48.884;9.192;2024-02-26T03:22:57;2.30;;;2.10;;
568;SDS011;269;48.884;9.192;2024-02-26T03:25:24;2.80;;;1.75;;
568;SDS011;269;48.884;9.192;2024-02-26T03:27:50;2.20;;;1.88;;
568;SDS011;269;48.884;9.192;2024-02-26T03:30:18;2.08;;;1.98;;
568;SDS011;269;48.884;9.192;2024-02-26T03:32:45;2.00;;;1.80;;
568;SDS011;269;48.884;9.192;2024-02-26T03:35:12;1.98;;;1.75;;
568;SDS011;269;48.884;9.192;2024-02-26T03:37:39;1.98;;;1.73;;
568;SDS011;269;48.884;9.192;2024-02-26T03:40:06;1.67;;;1.58;;
568;SDS011;269;48.884;9.192;2024-02-26T03:42:34;1.40;;;1.30;;
568;SDS011;269;48.884;9.192;2024-02-26T03:44:59;1.97;;;1.87;;
568;SDS011;269;48.884;9.192;2024-02-26T03:47:28;1.92;;;1.73;;
568;SDS011;269;48.884;9.192;2024-02-26T03:49:54;1.85;;;1.67;;
568;SDS011;269;48.884;9.192;2024-02-26T03:52:21;1.73;;;1.63;;
568;SDS011;269;48.884;9.192;2024-02-26T03:54:48;2.20;;;1.73;;
568;SDS011;269;48.884;9.192;2024-02-26T03:57:15;2.88;;;1.45;;
568;SDS011;269;48.884;9.192;2024-02-26T03:59:41;1.55;;;1.45;;
568;SDS011;269;48.884;9.192;2024-02-26T04:02:08;1.50;;;1.40;;
568;SDS011;269;48.884;9.192;2024-02-26T04:04:36;2.05;;;1.77;;
568;SDS011;269;48.884;9.192;2024-02-26T04:07:03;2.40;;;1.67;;
568;SDS011;269;48.884;9.192;2024-02-26T04:09:30;1.65;;;1.55;;
568;SDS011;269;48.884;9.192;2024-02-26T04:11:57;2.13;;;1.60;;
568;SDS011;269;48.884;9.192;2024-02-26T04:14:23;1.42;;;1.33;;
568;SDS011;269;48.884;9.192;2024-02-26T04:16:50;1.58;;;1.48;;
568;SDS011;269;48.884;9.192;2024-02-26T04:19:19;2.30;;;1.90;;
568;SDS011;269;48.884;9.192;2024-02-26T04:21:47;2.35;;;2.15;;
568;SDS011;269;48.884;9.192;2024-02-26T04:24:14;2.20;;;2.10;;
568;SDS011;269;48.884;9.192;2024-02-26T04:26:40;2.50;;;2.03;;
568;SDS011;269;48.884;9.192;2024-02-26T04:29:07;2.00;;;1.90;;
568;SDS011;269;48.884;9.192;2024-02-26T04:31:34;2.15;;;1.95;;
568;SDS011;269;48.884;9.192;2024-02-26T04:34:00;1.90;;;1.67;;
568;SDS011;269;48.884;9.192;2024-02-26T04:36:27;1.77;;;1.67;;
568;SDS011;269;48.884;9.192;2024-02-26T04:38:55;1.70;;;1.60;;
568;SDS011;269;48.884;9.192;2024-02-26T04:41:21;2.40;;;2.00;;
568;SDS011;269;48.884;9.192;2024-02-26T04:43:48;1.67;;;1.58;;
568;SDS011;269;48.884;9.192;2024-02-26T04:46:14;2.00;;;1.85;;
568;SDS011;269;48.884;9.192;2024-02-26T04:48:41;1.63;;;1.52;;
568;SDS011;269;48.884;9.192;2024-02-26T04:51:09;2.08;;;1.88;;
568;SDS011;269;48.884;9.192;2024-02-26T04:53:36;1.95;;;1.85;;
568;SDS011;269;48.884;9.192;2024-02-26T04:56:05;1.73;;;1.63;;
568;SDS011;269;48.884;9.192;2024-02-26T04:58:32;2.00;;;1.90;;
568;SDS011;269;48.884;9.192;2024-02-26T05:00:59;1.95;;;1.85;;
568;SDS011;269;48.884;9.192;2024-02-26T05:03:25;1.90;;;1.80;;
568;SDS011;269;48.884;9.192;2024-02-26T05:05:52;2.40;;;2.13;;
568;SDS011;269;48.884;9.192;2024-02-26T05:08:19;1.90;;;1.80;;
568;SDS011;269;48.884;9.192;2024-02-26T05:10:45;2.00;;;1.90;;
568;SDS011;269;48.884;9.192;2024-02-26T05:13:13;2.03;;;1.88;;
568;SDS011;269;48.884;9.192;2024-02-26T05:15:43;1.90;;;1.80;;
568;SDS011;269;48.884;9.192;2024-02-26T05:18:10;5.15;;;1.90;;
568;SDS011;269;48.884;9.192;2024-02-26T05:20:36;2.08;;;1.88;;
568;SDS011;269;48.884;9.192;2024-02-26T05:23:05;2.08;;;1.88;;
568;SDS011;269;48.884;9.192;2024-02-26T05:25:31;2.03;;;1.90;;
568;SDS011;269;48.884;9.192;2024-02-26T05:27:58;3.90;;;2.50;;
568;SDS011;269;48.884;9.192;2024-02-26T05:30:26;2.13;;;1.92;;
568;SDS011;269;48.884;9.192;2024-02-26T05:32:53;2.17;;;2.03;;
568;SDS011;269;48.884;9.192;2024-02-26T05:35:19;2.60;;;2.00;;
568;SDS011;269;48.884;9.192;2024-02-26T05:37:46;2.05;;;1.85;;
568;SDS011;269;48.884;9.192;2024-02-26T05:40:13;2.00;;;1.90;;
568;SDS011;269;48.884;9.192;2024-02-26T05:42:40;2.10;;;1.90;;
568;SDS011;269;48.884;9.192;2024-02-26T05:45:07;2.47;;;1.85;;
568;SDS011;269;48.884;9.192;2024-02-26T05:47:35;3.03;;;2.15;;
568;SDS011;269;48.884;9.192;2024-02-26T05:50:07;2.15;;;1.95;;
568;SDS011;269;48.884;9.192;2024-02-26T05:52:36;2.75;;;2.00;;
568;SDS011;269;48.884;9.192;2024-02-26T05:55:04;3.13;;;2.10;;
568;SDS011;269;48.884;9.192;2024-02-26T05:57:31;2.65;;;1.95;;
568;SDS011;269;48.884;9.192;2024-02-26T05:59:57;2.20;;;2.10;;
568;SDS011;269;48.884;9.192;2024-02-26T06:02:28;2.17;;;2.00;;
568;SDS011;269;48.884;9.192;2024-02-26T06:04:56;2.35;;;2.25;;
568;SDS011;269;48.884;9.192;2024-02-26T06:07:23;2.50;;;2.30;;
568;SDS011;269;48.884;9.192;2024-02-26T06:09:49;2.53;;;2.33;;
568;SDS011;269;48.884;9.192;2024-02-26T06:12:15;3.30;;;2.10;;
568;SDS011;269;48.884;9.192;2024-02-26T06:14:42;2.63;;;2.00;;
568;SDS011;269;48.884;9.192;2024-02-26T06:17:08;2.38;;;2.17;;
568;SDS011;269;48.884;9.192;2024-02-26T06:19:35;2.38;;;2.15;;
568;SDS011;269;48.884;9.192;2024-02-26T06:22:03;2.90;;;2.70;;
568;SDS011;269;48.884;9.192;2024-02-26T06:24:29;3.63;;;3.42;;
568;SDS011;269;48.884;9.192;2024-02-26T06:26:57;3.45;;;2.60;;
568;SDS011;269;48.884;9.192;2024-02-26T06:29:23;3.13;;;2.30;;
568;SDS011;269;48.884;9.192;2024-02-26T06:31:51;3.28;;;2.92;;
568;SDS011;269;48.884;9.192;2024-02-26T06:34:17;2.60;;;2.40;;
568;SDS011;269;48.884;9.192;2024-02-26T06:36:44;2.78;;;2.55;;
568;SDS011;269;48.884;9.192;2024-02-26T06:39:13;2.78;;;2.22;;
568;SDS011;269;48.884;9.192;2024-02-26T06:41:41;2.65;;;2.45;;
568;SDS011;269;48.884;9.192;2024-02-26T06:44:07;2.38;;;2.20;;
568;SDS011;269;48.884;9.192;2024-02-26T06:46:35;2.90;;;2.70;;
568;SDS011;269;48.884;9.192;2024-02-26T06:49:02;2.65;;;2.45;;
568;SDS011;269;48.884;9.192;2024-02-26T06:51:28;2.60;;;2.40;;
568;SDS011;269;48.884;9.192;2024-02-26T06:53:55;3.03;;;2.70;;
568;SDS011;269;48.884;9.192;2024-02-26T06:56:23;2.88;;;2.60;;
568;SDS011;269;48.884;9.192;2024-02-26T06:58:53;2.80;;;2.60;;
568;SDS011;269;48.884;9.192;2024-02-26T07:01:19;2.70;;;2.50;;
568;SDS011;269;48.884;9.192;2024-02-26T07:03:46;11.63;;;8.85;;
568;SDS011;269;48.884;9.192;2024-02-26T07:06:14;29.65;;;22.20;;
568;SDS011;269;48.884;9.192;2024-02-26T07:08:40;18.40;;;13.23;;
568;SDS011;269;48.884;9.192;2024-02-26T07:11:07;7.78;;;6.60;;
568;SDS011;269;48.884;9.192;2024-02-26T07:13:35;10.23;;;8.70;;
568;SDS011;269;48.884;9.192;2024-02-26T07:16:02;8.52;;;7.07;;
568;SDS011;269;48.884;9.192;2024-02-26T07:18:29;5.85;;;4.78;;
568;SDS011;269;48.884;9.192;2024-02-26T07:20:57;2.97;;;2.72;;
568;SDS011;269;48.884;9.192;2024-02-26T07:23:23;2.70;;;2.42;;
568;SDS011;269;48.884;9.192;2024-02-26T07:25:51;2.90;;;2.70;;
568;SDS011;269;48.884;9.192;2024-02-26T07:28:18;2.90;;;2.70;;
568;SDS011;269;48.884;9.192;2024-02-26T07:30:48;2.83;;;2.60;;
568;SDS011;269;48.884;9.192;2024-02-26T07:33:14;2.90;;;2.70;;
568;SDS011;269;48.884;9.192;2024-02-26T07:35:41;4.07;;;2.47;;
568;SDS011;269;48.884;9.192;2024-02-26T07:38:08;3.88;;;2.90;;
568;SDS011;269;48.884;9.192;2024-02-26T07:40:35;3.67;;;3.10;;
568;SDS011;269;48.884;9.192;2024-02-26T07:43:02;3.90;;;3.30;;
568;SDS011;269;48.884;9.192;2024-02-26T07:45:29;3.33;;;3.10;;
568;SDS011;269;48.884;9.192;2024-02-26T07:47:57;2.90;;;2.58;;
568;SDS011;269;48.884;9.192;2024-02-26T07:50:23;3.17;;;2.90;;
568;SDS011;269;48.884;9.192;2024-02-26T07:52:50;3.63;;;2.90;;
568;SDS011;269;48.884;9.192;2024-02-26T07:55:18;2.72;;;2.53;;
568;SDS011;269;48.884;9.192;2024-02-26T07:57:45;3.45;;;2.95;;
568;SDS011;269;48.884;9.192;2024-02-26T08:00:13;4.35;;;3.30;;
568;SDS011;269;48.884;9.192;2024-02-26T08:02:41;3.67;;;3.17;;
568;SDS011;269;48.884;9.192;2024-02-26T08:05:10;4.85;;;2.92;;
568;SDS011;269;48.884;9.192;2024-02-26T08:07:36;3.35;;;3.05;;
568;SDS011;269;48.884;9.192;2024-02-26T08:10:03;3.38;;;3.10;;
568;SDS011;269;48.884;9.192;2024-02-26T08:12:30;6.13;;;4.05;;
568;SDS011;269;48.884;9.192;2024-02-26T08:14:56;4.03;;;3.70;;
568;SDS011;269;48.884;9.192;2024-02-26T08:17:23;6.18;;;3.95;;
568;SDS011;269;48.884;9.192;2024-02-26T08:19:51;4.13;;;3.72;;
568;SDS011;269;48.884;9.192;2024-02-26T08:22:19;3.85;;;3.55;;
568;SDS011;269;48.884;9.192;2024-02-26T08:24:47;3.80;;;3.13;;
568;SDS011;269;48.884;9.192;2024-02-26T08:27:13;4.00;;;3.70;;
568;SDS011;269;48.884;9.192;2024-02-26T08:29:40;4.80;;;4.30;;
568;SDS011;269;48.884;9.192;2024-02-26T08:32:07;4.55;;;4.05;;
568;SDS011;269;48.884;9.192;2024-02-26T08:34:33;6.45;;;4.40;;
568;SDS011;269;48.884;9.192;2024-02-26T08:37:00;4.53;;;3.83;;
568;SDS011;269;48.884;9.192;2024-02-26T08:39:28;5.35;;;3.65;;
568;SDS011;269;48.884;9.192;2024-02-26T08:41:54;5.22;;;3.80;;
568;SDS011;269;48.884;9.192;2024-02-26T08:44:21;4.85;;;3.60;;
568;SDS011;269;48.884;9.192;2024-02-26T08:46:47;5.07;;;3.20;;
568;SDS011;269;48.884;9.192;2024-02-26T08:49:16;3.50;;;3.20;;
568;SDS011;269;48.884;9.192;2024-02-26T08:51:42;3.15;;;2.85;;
568;SDS011;269;48.884;9.192;2024-02-26T08:54:09;3.78;;;2.95;;
568;SDS011;269;48.884;9.192;2024-02-26T08:56:37;5.72;;;3.10;;
568;SDS011;269;48.884;9.192;2024-02-26T08:59:03;4.43;;;3.10;;
568;SDS011;269;48.884;9.192;2024-02-26T09:01:31;4.85;;;3.33;;
568;SDS011;269;48.884;9.192;2024-02-26T09:03:57;4.10;;;3.05;;
568;SDS011;269;48.884;9.192;2024-02-26T09:06:24;4.03;;;3.40;;
568;SDS011;269;48.884;9.192;2024-02-26T09:08:51;6.50;;;3.30;;
568;SDS011;269;48.884;9.192;2024-02-26T09:11:17;3.67;;;3.15;;
568;SDS011;269;48.884;9.192;2024-02-26T09:13:46;3.97;;;3.67;;
568;SDS011;269;48.884;9.192;2024-02-26T09:16:16;3.60;;;2.90;;
568;SDS011;269;48.884;9.192;2024-02-26T09:18:42;2.90;;;2.70;;
568;SDS011;269;48.884;9.192;2024-02-26T09:21:09;3.22;;;3.03;;
568;SDS011;269;48.884;9.192;2024-02-26T09:23:35;2.60;;;2.40;;
568;SDS011;269;48.884;9.192;2024-02-26T09:26:04;3.03;;;2.83;;
568;SDS011;269;48.884;9.192;2024-02-26T09:28:31;3.72;;;2.63;;
568;SDS011;269;48.884;9.192;2024-02-26T09:31:03;2.30;;;2.10;;
568;SDS011;269;48.884;9.192;2024-02-26T09:33:33;2.72;;;2.47;;
568;SDS011;269;48.884;9.192;2024-02-26T09:36:00;2.78;;;2.47;;
568;SDS011;269;48.884;9.192;2024-02-26T09:38:26;2.70;;;2.50;;
568;SDS011;269;48.884;9.192;2024-02-26T09:40:54;2.60;;;2.40;;
568;SDS011;269;48.884;9.192;2024-02-26T09:43:21;2.45;;;2.30;;
568;SDS011;269;48.884;9.192;2024-02-26T09:45:49;3.75;;;3.17;;
568;SDS011;269;48.884;9.192;2024-02-26T09:48:18;2.95;;;2.75;;
568;SDS011;269;48.884;9.192;2024-02-26T09:50:44;2.55;;;2.35;;
568;SDS011;269;48.884;9.192;2024-02-26T09:53:11;2.40;;;2.20;;
568;SDS011;269;48.884;9.192;2024-02-26T09:55:39;3.05;;;2.20;;
568;SDS011;269;48.884;9.192;2024-02-26T09:58:06;2.58;;;2.38;;
568;SDS011;269;48.884;9.192;2024-02-26T10:00:33;2.30;;;2.10;;
568;SDS011;269;48.884;9.192;2024-02-26T10:03:04;3.13;;;2.80;;
568;SDS011;269;48.884;9.192;2024-02-26T10:05:32;2.20;;;2.10;;
568;SDS011;269;48.884;9.192;2024-02-26T10:08:00;2.42;;;2.15;;
568;SDS011;269;48.884;9.192;2024-02-26T10:10:27;2.40;;;2.20;;
568;SDS011;269;48.884;9.192;2024-02-26T10:12:54;2.20;;;2.10;;
568;SDS011;269;48.884;9.192;2024-02-26T10:15:21;2.55;;;2.38;;
568;SDS011;269;48.884;9.192;2024-02-26T10:17:47;2.70;;;2.50;;
568;SDS011;269;48.884;9.192;2024-02-26T10:20:14;2.55;;;2.35;;
568;SDS011;269;48.884;9.192;2024-02-26T10:22:44;2.45;;;2.25;;
568;SDS011;269;48.884;9.192;2024-02-26T10:25:10;2.70;;;2.50;;
568;SDS011;269;48.884;9.192;2024-02-26T10:27:37;2.17;;;1.95;;
568;SDS011;269;48.884;9.192;2024-02-26T10:30:04;2.53;;;2.30;;
568;SDS011;269;48.884;9.192;2024-02-26T10:32:31;2.55;;;2.35;;
568;SDS011;269;48.884;9.192;2024-02-26T10:35:07;2.55;;;2.10;;
568;SDS011;269;48.884;9.192;2024-02-26T10:37:40;2.35;;;2.15;;
568;SDS011;269;48.884;9.192;2024-02-26T10:40:11;2.50;;;2.30;;
568;SDS011;269;48.884;9.192;2024-02-26T10:42:38;2.10;;;2.00;;
568;SDS011;269;48.884;9.192;2024-02-26T10:45:05;2.50;;;1.67;;
568;SDS011;269;48.884;9.192;2024-02-26T10:47:32;1.93;;;1.83;;
568;SDS011;269;48.884;9.192;2024-02-26T10:49:59;2.45;;;1.90;;
568;SDS011;269;48.884;9.192;2024-02-26T10:52:25;1.90;;;1.80;;
568;SDS011;269;48.884;9.192;2024-02-26T10:54:53;2.33;;;2.13;;
568;SDS011;269;48.884;9.192;2024-02-26T10:57:22;2.00;;;1.80;;
568;SDS011;269;48.884;9.192;2024-02-26T10:59:49;2.35;;;2.10;;
568;SDS011;269;48.884;9.192;2024-02-26T11:02:16;2.80;;;2.45;;
568;SDS011;269;48.884;9.192;2024-02-26T11:04:43;2.10;;;1.95;;
568;SDS011;269;48.884;9.192;2024-02-26T11:07:10;2.22;;;2.03;;
568;SDS011;269;48.884;9.192;2024-02-26T11:09:37;2.35;;;2.15;;
568;SDS011;269;48.884;9.192;2024-02-26T11:12:08;2.53;;;2.33;;
568;SDS011;269;48.884;9.192;2024-02-26T11:14:40;2.93;;;2.50;;
568;SDS011;269;48.884;9.192;2024-02-26T11:17:07;2.07;;;1.97;;
568;SDS011;269;48.884;9.192;2024-02-26T11:19:35;3.10;;;2.17;;
568;SDS011;269;48.884;9.192;2024-02-26T11:22:02;2.13;;;2.03;;
568;SDS011;269;48.884;9.192;2024-02-26T11:24:29;2.37;;;1.90;;
568;SDS011;269;48.884;9.192;2024-02-26T11:26:56;1.97;;;1.77;;
568;SDS011;269;48.884;9.192;2024-02-26T11:29:26;1.87;;;1.77;;
568;SDS011;269;48.884;9.192;2024-02-26T11:31:56;2.67;;;2.20;;
568;SDS011;269;48.884;9.192;2024-02-26T11:34:25;2.10;;;2.00;;
568;SDS011;269;48.884;9.192;2024-02-26T11:36:51;1.60;;;1.50;;
568;SDS011;269;48.884;9.192;2024-02-26T11:39:18;1.80;;;1.50;;
568;SDS011;269;48.884;9.192;2024-02-26T11:41:46;2.00;;;1.80;;
568;SDS011;269;48.884;9.192;2024-02-26T11:44:13;2.20;;;1.87;;
568;SDS011;269;48.884;9.192;2024-02-26T11:46:39;1.73;;;1.63;;
568;SDS011;269;48.884;9.192;2024-02-26T11:52:00;1.80;;;1.57;;
568;SDS011;269;48.884;9.192;2024-02-26T11:54:38;1.90;;;1.80;;
568;SDS011;269;48.884;9.192;2024-02-26T11:57:19;2.77;;;1.80;;
568;SDS011;269;48.884;9.192;2024-02-26T11:59:49;1.50;;;1.40;;
568;SDS011;269;48.884;9.192;2024-02-26T12:05:12;1.90;;;1.60;;
568;SDS011;269;48.884;9.192;2024-02-26T12:07:42;1.93;;;1.70;;
568;SDS011;269;48.884;9.192;2024-02-26T12:10:21;1.80;;;1.70;;
568;SDS011;269;48.884;9.192;2024-02-26T12:12:52;2.00;;;1.80;;
568;SDS011;269;48.884;9.192;2024-02-26T12:15:19;2.73;;;1.70;;
568;SDS011;269;48.884;9.192;2024-02-26T12:17:49;1.90;;;1.70;;
568;SDS011;269;48.884;9.192;2024-02-26T12:20:18;2.27;;;1.63;;
568;SDS011;269;48.884;9.192;2024-02-26T12:22:45;1.67;;;1.50;;
568;SDS011;269;48.884;9.192;2024-02-26T12:25:13;1.57;;;1.47;;
568;SDS011;269;48.884;9.192;2024-02-26T12:27:41;2.90;;;1.90;;
568;SDS011;269;48.884;9.192;2024-02-26T12:30:08;1.97;;;1.80;;
568;SDS011;269;48.884;9.192;2024-02-26T12:32:35;1.97;;;1.80;;
568;SDS011;269;48.884;9.192;2024-02-26T12:35:02;1.57;;;1.40;;
568;SDS011;269;48.884;9.192;2024-02-26T12:37:30;1.67;;;1.57;;
568;SDS011;269;48.884;9.192;2024-02-26T12:39:57;1.50;;;1.40;;
568;SDS011;269;48.884;9.192;2024-02-26T12:42:23;1.80;;;1.50;;
568;SDS011;269;48.884;9.192;2024-02-26T12:44:50;1.83;;;1.73;;
568;SDS011;269;48.884;9.192;2024-02-26T12:47:17;3.17;;;1.63;;
568;SDS011;269;48.884;9.192;2024-02-26T12:49:45;1.47;;;1.37;;
568;SDS011;269;48.884;9.192;2024-02-26T12:52:13;2.80;;;1.70;;
568;SDS011;269;48.884;9.192;2024-02-26T12:54:41;1.43;;;1.33;;
568;SDS011;269;48.884;9.192;2024-02-26T12:57:08;1.60;;;1.50;;
568;SDS011;269;48.884;9.192;2024-02-26T12:59:35;2.43;;;1.40;;
568;SDS011;269;48.884;9.192;2024-02-26T13:02:02;1.60;;;1.50;;
568;SDS011;269;48.884;9.192;2024-02-26T13:04:29;1.60;;;1.50;;
568;SDS011;269;48.884;9.192;2024-02-26T13:06:56;1.33;;;1.23;;
568;SDS011;269;48.884;9.192;2024-02-26T13:09:25;2.00;;;1.43;;
568;SDS011;269;48.884;9.192;2024-02-26T13:11:54;1.30;;;1.20;;
568;SDS011;269;48.884;9.192;2024-02-26T13:14:21;1.40;;;1.30;;
568;SDS011;269;48.884;9.192;2024-02-26T13:16:54;1.50;;;1.20;;
568;SDS011;269;48.884;9.192;2024-02-26T13:19:21;1.70;;;1.60;;
568;SDS011;269;48.884;9.192;2024-02-26T13:21:48;2.13;;;1.23;;
568;SDS011;269;48.884;9.192;2024-02-26T13:24:14;2.00;;;1.47;;
568;SDS011;269;48.884;9.192;2024-02-26T13:26:41;1.43;;;1.33;;
568;SDS011;269;48.884;9.192;2024-02-26T13:29:17;1.70;;;1.40;;
568;SDS011;269;48.884;9.192;2024-02-26T13:31:44;1.70;;;1.60;;
568;SDS011;269;48.884;9.192;2024-02-26T13:34:11;1.60;;;1.50;;
568;SDS011;269;48.884;9.192;2024-02-26T13:36:38;1.23;;;1.13;;
568;SDS011;269;48.884;9.192;2024-02-26T13:39:04;1.40;;;1.00;;
568;SDS011;269;48.884;9.192;2024-02-26T13:41:31;1.83;;;1.10;;
568;SDS011;269;48.884;9.192;2024-02-26T13:43:59;1.30;;;1.20;;
568;SDS011;269;48.884;9.192;2024-02-26T13:46:27;1.10;;;0.93;;
568;SDS011;269;48.884;9.192;2024-02-26T13:48:54;0.80;;;0.80;;
568;SDS011;269;48.884;9.192;2024-02-26T13:51:21;1.07;;;0.90;;
568;SDS011;269;48.884;9.192;2024-02-26T13:53:48;0.70;;;0.70;;
568;SDS011;269;48.884;9.192;2024-02-26T13:56:14;0.80;;;0.70;;
568;SDS011;269;48.884;9.192;2024-02-26T13:58:41;0.80;;;0.80;;
568;SDS011;269;48.884;9.192;2024-02-26T14:01:09;0.80;;;0.70;;
568;SDS011;269;48.884;9.192;2024-02-26T14:03:37;0.90;;;0.70;;
568;SDS011;269;48.884;9.192;2024-02-26T14:06:05;1.23;;;0.90;;
568;SDS011;269;48.884;9.192;2024-02-26T14:08:32;1.00;;;0.90;;
568;SDS011;269;48.884;9.192;2024-02-26T14:10:58;1.20;;;1.10;;
568;SDS011;269;48.884;9.192;2024-02-26T14:13:25;1.53;;;0.80;;
568;SDS011;269;48.884;9.192;2024-02-26T14:15:53;1.10;;;0.87;;
568;SDS011;269;48.884;9.192;2024-02-26T14:18:21;1.13;;;0.90;;
568;SDS011;269;48.884;9.192;2024-02-26T14:20:49;0.90;;;0.70;;
568;SDS011;269;48.884;9.192;2024-02-26T14:23:16;0.60;;;0.57;;
568;SDS011;269;48.884;9.192;2024-02-26T14:25:43;0.80;;;0.70;;
568;SDS011;269;48.884;9.192;2024-02-26T14:28:09;1.07;;;0.63;;
568;SDS011;269;48.884;9.192;2024-02-26T14:30:36;0.60;;;0.60;;
568;SDS011;269;48.884;9.192;2024-02-26T14:33:03;0.63;;;0.63;;
568;SDS011;269;48.884;9.192;2024-02-26T14:35:31;0.97;;;0.90;;
568;SDS011;269;48.884;9.192;2024-02-26T14:37:59;0.83;;;0.83;;
568;SDS011;269;48.884;9.192;2024-02-26T14:40:26;0.70;;;0.70;;
568;SDS011;269;48.884;9.192;2024-02-26T14:42:53;0.80;;;0.80;;
568;SDS011;269;48.884;9.192;2024-02-26T14:45:19;2.03;;;0.63;;
568;SDS011;269;48.884;9.192;2024-02-26T14:47:46;0.70;;;0.60;;
568;SDS011;269;48.884;9.192;2024-02-26T14:50:13;0.70;;;0.60;;
568;SDS011;269;48.884;9.192;2024-02-26T14:52:39;0.93;;;0.73;;
568;SDS011;269;48.884;9.192;2024-02-26T14:55:08;1.03;;;0.80;;
568;SDS011;269;48.884;9.192;2024-02-26T14:57:35;1.47;;;0.90;;
568;SDS011;269;48.884;9.192;2024-02-26T15:00:02;1.90;;;1.30;;
568;SDS011;269;48.884;9.192;2024-02-26T15:02:30;2.30;;;1.33;;
568;SDS011;269;48.884;9.192;2024-02-26T15:04:58;1.10;;;0.83;;
568;SDS011;269;48.884;9.192;2024-02-26T15:07:25;1.30;;;0.80;;
568;SDS011;269;48.884;9.192;2024-02-26T15:09:52;0.63;;;0.57;;
568;SDS011;269;48.884;9.192;2024-02-26T15:12:23;0.70;;;0.70;;
568;SDS011;269;48.884;9.192;2024-02-26T15:14:50;1.50;;;0.87;;
568;SDS011;269;48.884;9.192;2024-02-26T15:17:16;1.13;;;0.77;;
568;SDS011;269;48.884;9.192;2024-02-26T15:19:45;0.80;;;0.73;;
568;SDS011;269;48.884;9.192;2024-02-26T15:22:12;2.00;;;0.90;;
568;SDS011;269;48.884;9.192;2024-02-26T15:24:38;0.80;;;0.80;;
568;SDS011;269;48.884;9.192;2024-02-26T15:27:05;1.57;;;0.80;;
568;SDS011;269;48.884;9.192;2024-02-26T15:29:32;1.00;;;0.90;;
568;SDS011;269;48.884;9.192;2024-02-26T15:32:01;1.00;;;0.90;;
568;SDS011;269;48.884;9.192;2024-02-26T15:34:27;1.27;;;1.17;;
568;SDS011;269;48.884;9.192;2024-02-26T15:36:54;0.80;;;0.70;;
568;SDS011;269;48.884;9.192;2024-02-26T15:39:20;1.20;;;0.90;;
568;SDS011;269;48.884;9.192;2024-02-26T15:41:47;1.60;;;1.30;;
568;SDS011;269;48.884;9.192;2024-02-26T15:44:14;1.60;;;1.13;;
568;SDS011;269;48.884;9.192;2024-02-26T15:46:42;1.30;;;1.20;;
568;SDS011;269;48.884;9.192;2024-02-26T15:49:09;1.10;;;1.00;;
568;SDS011;269;48.884;9.192;2024-02-26T15:51:37;1.00;;;0.90;;